sensor_id;sensor_type;location;lat;lon;timestamp;pressure;altitude;pressure_sealevel;temperature;humidity
35307;BME280;21420;52.196;21.416;2023-11-21T00:01:24;99571.21;;;-0.49;78.05
35307;BME280;21420;52.196;21.416;2023-11-21T00:03:51;99569.40;;;-0.51;78.08
35307;BME280;21420;52.196;21.416;2023-11-21T00:06:21;99566.25;;;-0.55;78.04
35307;BME280;21420;52.196;21.416;2023-11-21T00:08:48;99564.69;;;-0.60;78.03
35307;BME280;21420;52.196;21.416;2023-11-21T00:11:14;99560.71;;;-0.62;78.03
35307;BME280;21420;52.196;21.416;2023-11-21T00:13:41;99565.61;;;-0.62;78.04
35307;BME280;21420;52.196;21.416;2023-11-21T00:16:08;99566.13;;;-0.67;78.03
35307;BME280;21420;52.196;21.416;2023-11-21T00:18:35;99567.52;;;-0.69;78.00
35307;BME280;21420;52.196;21.416;2023-11-21T00:21:02;99569.06;;;-0.70;77.90
35307;BME280;21420;52.196;21.416;2023-11-21T00:23:30;99570.74;;;-0.71;77.89
35307;BME280;21420;52.196;21.416;2023-11-21T00:25:56;99573.10;;;-0.70;78.10
35307;BME280;21420;52.196;21.416;2023-11-21T00:28:23;99573.66;;;-0.68;77.97
35307;BME280;21420;52.196;21.416;2023-11-21T00:30:50;99574.84;;;-0.66;78.00
35307;BME280;21420;52.196;21.416;2023-11-21T00:33:16;99578.50;;;-0.67;78.05
35307;BME280;21420;52.196;21.416;2023-11-21T00:35:43;99582.82;;;-0.69;78.00
35307;BME280;21420;52.196;21.416;2023-11-21T00:38:10;99577.20;;;-0.71;77.83
35307;BME280;21420;52.196;21.416;2023-11-21T00:40:37;99580.52;;;-0.71;77.87
35307;BME280;21420;52.196;21.416;2023-11-21T00:43:04;99582.52;;;-0.71;77.99
35307;BME280;21420;52.196;21.416;2023-11-21T00:45:32;99588.51;;;-0.73;77.93
35307;BME280;21420;52.196;21.416;2023-11-21T00:47:58;99586.91;;;-0.76;77.93
35307;BME280;21420;52.196;21.416;2023-11-21T00:50:26;99586.28;;;-0.79;77.79
35307;BME280;21420;52.196;21.416;2023-11-21T00:52:55;99587.48;;;-0.81;77.78
35307;BME280;21420;52.196;21.416;2023-11-21T00:55:22;99589.27;;;-0.82;77.88
35307;BME280;21420;52.196;21.416;2023-11-21T00:57:50;99594.30;;;-0.81;77.75
35307;BME280;21420;52.196;21.416;2023-11-21T01:00:17;99594.67;;;-0.80;77.94
35307;BME280;21420;52.196;21.416;2023-11-21T01:02:44;99598.47;;;-0.83;77.86
35307;BME280;21420;52.196;21.416;2023-11-21T01:05:11;99594.22;;;-0.86;77.83
35307;BME280;21420;52.196;21.416;2023-11-21T01:07:39;99592.27;;;-0.89;77.80
35307;BME280;21420;52.196;21.416;2023-11-21T01:10:06;99596.27;;;-0.93;77.91
35307;BME280;21420;52.196;21.416;2023-11-21T01:12:36;99598.41;;;-0.93;77.88
35307;BME280;21420;52.196;21.416;2023-11-21T01:15:07;99599.77;;;-0.95;77.90
35307;BME280;21420;52.196;21.416;2023-11-21T01:17:35;99601.92;;;-0.96;77.81
35307;BME280;21420;52.196;21.416;2023-11-21T01:20:02;99602.34;;;-0.94;77.87
35307;BME280;21420;52.196;21.416;2023-11-21T01:22:32;99602.20;;;-0.96;77.77
35307;BME280;21420;52.196;21.416;2023-11-21T01:24:59;99605.88;;;-0.99;77.78
35307;BME280;21420;52.196;21.416;2023-11-21T01:27:26;99608.52;;;-1.00;77.69
35307;BME280;21420;52.196;21.416;2023-11-21T01:29:53;99609.90;;;-0.99;77.86
35307;BME280;21420;52.196;21.416;2023-11-21T01:32:21;99612.12;;;-0.99;77.91
35307;BME280;21420;52.196;21.416;2023-11-21T01:34:49;99612.84;;;-0.95;77.98
35307;BME280;21420;52.196;21.416;2023-11-21T01:37:17;99610.66;;;-0.90;78.15
35307;BME280;21420;52.196;21.416;2023-11-21T01:39:44;99611.18;;;-0.88;78.11
35307;BME280;21420;52.196;21.416;2023-11-21T01:42:11;99609.99;;;-0.87;77.91
35307;BME280;21420;52.196;21.416;2023-11-21T01:44:39;99609.56;;;-0.86;77.96
35307;BME280;21420;52.196;21.416;2023-11-21T01:47:07;99614.55;;;-0.86;77.84
35307;BME280;21420;52.196;21.416;2023-11-21T01:49:36;99615.77;;;-0.88;77.89
35307;BME280;21420;52.196;21.416;2023-11-21T01:52:03;99617.14;;;-0.87;78.06
35307;BME280;21420;52.196;21.416;2023-11-21T01:54:31;99619.17;;;-0.87;77.92
35307;BME280;21420;52.196;21.416;2023-11-21T01:57:01;99621.03;;;-0.89;77.79
35307;BME280;21420;52.196;21.416;2023-11-21T01:59:40;99622.15;;;-0.89;77.90
35307;BME280;21420;52.196;21.416;2023-11-21T02:02:08;99621.02;;;-0.88;77.84
35307;BME280;21420;52.196;21.416;2023-11-21T02:04:37;99619.40;;;-0.86;78.00
35307;BME280;21420;52.196;21.416;2023-11-21T02:07:04;99623.59;;;-0.86;77.96
35307;BME280;21420;52.196;21.416;2023-11-21T02:09:34;99627.42;;;-0.88;77.97
35307;BME280;21420;52.196;21.416;2023-11-21T02:12:05;99629.52;;;-0.91;77.70
35307;BME280;21420;52.196;21.416;2023-11-21T02:14:32;99627.34;;;-0.94;77.77
35307;BME280;21420;52.196;21.416;2023-11-21T02:16:58;99630.12;;;-0.91;77.93
35307;BME280;21420;52.196;21.416;2023-11-21T02:19:27;99634.48;;;-0.89;77.99
35307;BME280;21420;52.196;21.416;2023-11-21T02:21:57;99628.34;;;-0.89;77.88
35307;BME280;21420;52.196;21.416;2023-11-21T02:24:30;99625.98;;;-0.91;77.90
35307;BME280;21420;52.196;21.416;2023-11-21T02:26:57;99629.86;;;-0.92;77.90
35307;BME280;21420;52.196;21.416;2023-11-21T02:29:24;99632.05;;;-0.90;77.98
35307;BME280;21420;52.196;21.416;2023-11-21T02:31:55;99633.77;;;-0.91;77.97
35307;BME280;21420;52.196;21.416;2023-11-21T02:34:23;99636.40;;;-0.89;77.98
35307;BME280;21420;52.196;21.416;2023-11-21T02:36:52;99634.24;;;-0.89;77.86
35307;BME280;21420;52.196;21.416;2023-11-21T02:39:19;99635.54;;;-0.91;77.86
35307;BME280;21420;52.196;21.416;2023-11-21T02:41:48;99639.46;;;-0.91;77.84
35307;BME280;21420;52.196;21.416;2023-11-21T02:44:15;99641.52;;;-0.91;77.93
35307;BME280;21420;52.196;21.416;2023-11-21T02:46:42;99642.70;;;-0.91;77.85
35307;BME280;21420;52.196;21.416;2023-11-21T02:49:09;99640.56;;;-0.92;77.87
35307;BME280;21420;52.196;21.416;2023-11-21T02:51:39;99641.95;;;-0.93;77.94
35307;BME280;21420;52.196;21.416;2023-11-21T02:54:07;99642.05;;;-0.98;77.92
35307;BME280;21420;52.196;21.416;2023-11-21T02:56:35;99639.66;;;-1.03;77.68
35307;BME280;21420;52.196;21.416;2023-11-21T02:59:02;99633.70;;;-1.07;77.82
35307;BME280;21420;52.196;21.416;2023-11-21T03:01:29;99640.69;;;-1.06;77.79
35307;BME280;21420;52.196;21.416;2023-11-21T03:03:55;99641.93;;;-1.08;77.78
35307;BME280;21420;52.196;21.416;2023-11-21T03:06:23;99644.85;;;-1.13;77.87
35307;BME280;21420;52.196;21.416;2023-11-21T03:08:50;99642.34;;;-1.14;77.79
35307;BME280;21420;52.196;21.416;2023-11-21T03:11:17;99650.70;;;-1.13;77.79
35307;BME280;21420;52.196;21.416;2023-11-21T03:13:44;99656.66;;;-1.12;77.74
35307;BME280;21420;52.196;21.416;2023-11-21T03:17:07;99658.61;;;-1.11;77.74
35307;BME280;21420;52.196;21.416;2023-11-21T03:19:33;99659.95;;;-1.12;77.74
35307;BME280;21420;52.196;21.416;2023-11-21T03:22:00;99659.31;;;-1.12;77.71
35307;BME280;21420;52.196;21.416;2023-11-21T03:24:27;99660.11;;;-1.12;77.80
35307;BME280;21420;52.196;21.416;2023-11-21T03:26:54;99664.84;;;-1.10;77.80
35307;BME280;21420;52.196;21.416;2023-11-21T03:29:20;99667.56;;;-1.07;77.85
35307;BME280;21420;52.196;21.416;2023-11-21T03:31:47;99665.51;;;-1.05;77.80
35307;BME280;21420;52.196;21.416;2023-11-21T03:34:23;99666.71;;;-1.09;77.65
35307;BME280;21420;52.196;21.416;2023-11-21T03:36:51;99670.06;;;-1.12;77.63
35307;BME280;21420;52.196;21.416;2023-11-21T03:39:18;99668.63;;;-1.15;77.66
35307;BME280;21420;52.196;21.416;2023-11-21T03:41:45;99670.73;;;-1.15;77.67
35307;BME280;21420;52.196;21.416;2023-11-21T03:44:13;99672.65;;;-1.15;77.81
35307;BME280;21420;52.196;21.416;2023-11-21T03:46:40;99677.91;;;-1.14;77.80
35307;BME280;21420;52.196;21.416;2023-11-21T03:49:08;99683.34;;;-1.14;77.79
35307;BME280;21420;52.196;21.416;2023-11-21T03:51:35;99685.17;;;-1.16;77.68
35307;BME280;21420;52.196;21.416;2023-11-21T03:54:02;99687.01;;;-1.15;77.73
35307;BME280;21420;52.196;21.416;2023-11-21T03:56:29;99686.56;;;-1.12;77.77
35307;BME280;21420;52.196;21.416;2023-11-21T03:58:56;99687.42;;;-1.12;77.82
35307;BME280;21420;52.196;21.416;2023-11-21T04:01:24;99688.45;;;-1.14;77.70
35307;BME280;21420;52.196;21.416;2023-11-21T04:03:51;99690.98;;;-1.16;77.77
35307;BME280;21420;52.196;21.416;2023-11-21T04:06:18;99689.91;;;-1.17;77.60
35307;BME280;21420;52.196;21.416;2023-11-21T04:08:45;99692.86;;;-1.18;77.75
35307;BME280;21420;52.196;21.416;2023-11-21T04:11:12;99693.08;;;-1.17;77.78
35307;BME280;21420;52.196;21.416;2023-11-21T04:13:40;99691.45;;;-1.14;77.82
35307;BME280;21420;52.196;21.416;2023-11-21T04:16:08;99694.57;;;-1.11;77.77
35307;BME280;21420;52.196;21.416;2023-11-21T04:18:36;99697.73;;;-1.11;77.74
35307;BME280;21420;52.196;21.416;2023-11-21T04:21:05;99702.24;;;-1.10;77.83
35307;BME280;21420;52.196;21.416;2023-11-21T04:23:31;99703.58;;;-1.08;77.73
35307;BME280;21420;52.196;21.416;2023-11-21T04:25:58;99706.36;;;-1.06;77.79
35307;BME280;21420;52.196;21.416;2023-11-21T04:28:25;99705.77;;;-1.06;77.85
35307;BME280;21420;52.196;21.416;2023-11-21T04:30:52;99706.63;;;-1.03;77.82
35307;BME280;21420;52.196;21.416;2023-11-21T04:33:19;99700.53;;;-1.01;77.72
35307;BME280;21420;52.196;21.416;2023-11-21T04:35:46;99702.05;;;-1.02;77.67
35307;BME280;21420;52.196;21.416;2023-11-21T04:38:12;99705.23;;;-1.02;77.82
35307;BME280;21420;52.196;21.416;2023-11-21T04:40:39;99710.55;;;-1.03;77.81
35307;BME280;21420;52.196;21.416;2023-11-21T04:43:06;99708.02;;;-1.04;77.71
35307;BME280;21420;52.196;21.416;2023-11-21T04:45:33;99710.21;;;-1.00;77.87
35307;BME280;21420;52.196;21.416;2023-11-21T04:48:00;99713.41;;;-0.94;77.97
35307;BME280;21420;52.196;21.416;2023-11-21T04:50:27;99713.30;;;-0.95;77.90
35307;BME280;21420;52.196;21.416;2023-11-21T04:52:53;99713.90;;;-0.95;77.96
35307;BME280;21420;52.196;21.416;2023-11-21T04:55:20;99716.27;;;-0.96;77.85
35307;BME280;21420;52.196;21.416;2023-11-21T04:57:47;99718.89;;;-0.97;77.80
35307;BME280;21420;52.196;21.416;2023-11-21T05:00:14;99718.84;;;-0.97;77.82
35307;BME280;21420;52.196;21.416;2023-11-21T05:02:42;99721.54;;;-0.97;77.86
35307;BME280;21420;52.196;21.416;2023-11-21T05:05:10;99719.67;;;-1.00;77.91
35307;BME280;21420;52.196;21.416;2023-11-21T05:07:41;99721.30;;;-1.02;77.88
35307;BME280;21420;52.196;21.416;2023-11-21T05:10:09;99724.15;;;-1.04;77.77
35307;BME280;21420;52.196;21.416;2023-11-21T05:12:40;99722.06;;;-1.07;77.75
35307;BME280;21420;52.196;21.416;2023-11-21T05:15:08;99721.55;;;-1.12;77.73
35307;BME280;21420;52.196;21.416;2023-11-21T05:17:39;99722.58;;;-1.15;77.78
35307;BME280;21420;52.196;21.416;2023-11-21T05:20:13;99724.29;;;-1.14;77.66
35307;BME280;21420;52.196;21.416;2023-11-21T05:22:44;99728.59;;;-1.13;77.79
35307;BME280;21420;52.196;21.416;2023-11-21T05:25:11;99730.27;;;-1.14;77.77
35307;BME280;21420;52.196;21.416;2023-11-21T05:27:38;99730.70;;;-1.16;77.79
35307;BME280;21420;52.196;21.416;2023-11-21T05:30:05;99738.48;;;-1.16;77.73
35307;BME280;21420;52.196;21.416;2023-11-21T05:32:33;99746.43;;;-1.16;77.75
35307;BME280;21420;52.196;21.416;2023-11-21T05:35:01;99750.79;;;-1.16;77.75
35307;BME280;21420;52.196;21.416;2023-11-21T05:37:28;99750.52;;;-1.16;77.83
35307;BME280;21420;52.196;21.416;2023-11-21T05:39:55;99749.77;;;-1.16;77.67
35307;BME280;21420;52.196;21.416;2023-11-21T05:42:26;99755.85;;;-1.16;77.84
35307;BME280;21420;52.196;21.416;2023-11-21T05:44:53;99761.69;;;-1.13;77.78
35307;BME280;21420;52.196;21.416;2023-11-21T05:47:20;99764.97;;;-1.10;77.92
35307;BME280;21420;52.196;21.416;2023-11-21T05:49:48;99767.48;;;-1.08;77.96
35307;BME280;21420;52.196;21.416;2023-11-21T05:52:17;99771.61;;;-1.07;77.95
35307;BME280;21420;52.196;21.416;2023-11-21T05:54:44;99772.91;;;-1.07;77.80
35307;BME280;21420;52.196;21.416;2023-11-21T05:57:11;99767.23;;;-1.09;77.66
35307;BME280;21420;52.196;21.416;2023-11-21T05:59:38;99771.95;;;-1.10;77.74
35307;BME280;21420;52.196;21.416;2023-11-21T06:02:04;99778.84;;;-1.10;77.80
35307;BME280;21420;52.196;21.416;2023-11-21T06:04:31;99781.77;;;-1.11;77.80
35307;BME280;21420;52.196;21.416;2023-11-21T06:06:58;99787.80;;;-1.11;77.74
35307;BME280;21420;52.196;21.416;2023-11-21T06:09:26;99787.11;;;-1.10;77.81
35307;BME280;21420;52.196;21.416;2023-11-21T06:11:54;99791.52;;;-1.12;77.92
35307;BME280;21420;52.196;21.416;2023-11-21T06:14:20;99793.35;;;-1.13;77.79
35307;BME280;21420;52.196;21.416;2023-11-21T06:16:48;99794.85;;;-1.13;77.61
35307;BME280;21420;52.196;21.416;2023-11-21T06:19:17;99798.39;;;-1.11;77.82
35307;BME280;21420;52.196;21.416;2023-11-21T06:21:47;99803.60;;;-1.08;77.86
35307;BME280;21420;52.196;21.416;2023-11-21T06:24:14;99800.85;;;-1.04;77.80
35307;BME280;21420;52.196;21.416;2023-11-21T06:26:42;99797.25;;;-1.05;77.92
35307;BME280;21420;52.196;21.416;2023-11-21T06:29:10;99799.20;;;-1.09;77.71
35307;BME280;21420;52.196;21.416;2023-11-21T06:31:37;99800.33;;;-1.10;77.67
35307;BME280;21420;52.196;21.416;2023-11-21T06:34:04;99803.34;;;-1.11;77.68
35307;BME280;21420;52.196;21.416;2023-11-21T06:36:31;99813.34;;;-1.12;77.80
35307;BME280;21420;52.196;21.416;2023-11-21T06:38:57;99817.75;;;-1.14;77.69
35307;BME280;21420;52.196;21.416;2023-11-21T06:41:24;99821.08;;;-1.13;77.71
35307;BME280;21420;52.196;21.416;2023-11-21T06:43:51;99824.27;;;-1.14;77.73
35307;BME280;21420;52.196;21.416;2023-11-21T06:46:18;99822.21;;;-1.15;77.77
35307;BME280;21420;52.196;21.416;2023-11-21T06:48:46;99825.86;;;-1.15;77.65
35307;BME280;21420;52.196;21.416;2023-11-21T06:51:15;99830.64;;;-1.16;77.75
35307;BME280;21420;52.196;21.416;2023-11-21T06:53:42;99834.20;;;-1.18;77.75
35307;BME280;21420;52.196;21.416;2023-11-21T06:56:18;99833.17;;;-1.18;77.76
35307;BME280;21420;52.196;21.416;2023-11-21T06:58:45;99836.20;;;-1.16;77.79
35307;BME280;21420;52.196;21.416;2023-11-21T07:01:13;99837.27;;;-1.15;77.73
35307;BME280;21420;52.196;21.416;2023-11-21T07:03:40;99838.77;;;-1.13;77.72
35307;BME280;21420;52.196;21.416;2023-11-21T07:06:08;99839.84;;;-1.08;77.83
35307;BME280;21420;52.196;21.416;2023-11-21T07:08:35;99844.81;;;-1.05;77.95
35307;BME280;21420;52.196;21.416;2023-11-21T07:11:01;99848.73;;;-0.98;77.80
35307;BME280;21420;52.196;21.416;2023-11-21T07:13:30;99854.74;;;-0.91;77.98
35307;BME280;21420;52.196;21.416;2023-11-21T07:15:58;99857.73;;;-0.89;77.88
35307;BME280;21420;52.196;21.416;2023-11-21T07:18:25;99861.23;;;-0.88;77.71
35307;BME280;21420;52.196;21.416;2023-11-21T07:20:52;99859.68;;;-0.88;77.86
35307;BME280;21420;52.196;21.416;2023-11-21T07:23:19;99861.72;;;-0.89;77.82
35307;BME280;21420;52.196;21.416;2023-11-21T07:25:46;99862.21;;;-0.90;77.84
35307;BME280;21420;52.196;21.416;2023-11-21T07:28:13;99863.17;;;-0.89;77.81
35307;BME280;21420;52.196;21.416;2023-11-21T07:30:40;99865.87;;;-0.88;77.93
35307;BME280;21420;52.196;21.416;2023-11-21T07:33:07;99865.98;;;-0.87;77.80
35307;BME280;21420;52.196;21.416;2023-11-21T07:35:33;99868.01;;;-0.84;77.86
35307;BME280;21420;52.196;21.416;2023-11-21T07:38:00;99868.00;;;-0.82;77.82
35307;BME280;21420;52.196;21.416;2023-11-21T07:40:27;99872.56;;;-0.79;77.85
35307;BME280;21420;52.196;21.416;2023-11-21T07:42:57;99867.34;;;-0.76;77.88
35307;BME280;21420;52.196;21.416;2023-11-21T07:45:25;99867.65;;;-0.72;77.89
35307;BME280;21420;52.196;21.416;2023-11-21T07:47:54;99868.59;;;-0.68;77.89
35307;BME280;21420;52.196;21.416;2023-11-21T07:50:22;99871.88;;;-0.64;78.06
35307;BME280;21420;52.196;21.416;2023-11-21T07:52:49;99871.34;;;-0.65;77.85
35307;BME280;21420;52.196;21.416;2023-11-21T07:55:16;99869.63;;;-0.68;77.76
35307;BME280;21420;52.196;21.416;2023-11-21T07:57:43;99869.38;;;-0.71;77.67
35307;BME280;21420;52.196;21.416;2023-11-21T08:00:10;99869.58;;;-0.70;77.76
35307;BME280;21420;52.196;21.416;2023-11-21T08:02:39;99874.05;;;-0.72;77.76
35307;BME280;21420;52.196;21.416;2023-11-21T08:05:09;99870.19;;;-0.74;77.74
35307;BME280;21420;52.196;21.416;2023-11-21T08:07:50;99868.48;;;-0.75;77.58
35307;BME280;21420;52.196;21.416;2023-11-21T08:10:17;99876.42;;;-0.74;77.68
35307;BME280;21420;52.196;21.416;2023-11-21T08:12:44;99884.33;;;-0.74;77.73
35307;BME280;21420;52.196;21.416;2023-11-21T08:15:10;99886.44;;;-0.74;77.61
35307;BME280;21420;52.196;21.416;2023-11-21T08:17:37;99892.34;;;-0.71;77.66
35307;BME280;21420;52.196;21.416;2023-11-21T08:20:06;99892.50;;;-0.73;77.75
35307;BME280;21420;52.196;21.416;2023-11-21T08:22:35;99896.65;;;-0.76;77.65
35307;BME280;21420;52.196;21.416;2023-11-21T08:25:03;99902.47;;;-0.77;77.62
35307;BME280;21420;52.196;21.416;2023-11-21T08:27:31;99903.65;;;-0.78;77.51
35307;BME280;21420;52.196;21.416;2023-11-21T08:29:57;99899.61;;;-0.79;77.57
35307;BME280;21420;52.196;21.416;2023-11-21T08:32:25;99899.19;;;-0.78;77.59
35307;BME280;21420;52.196;21.416;2023-11-21T08:34:51;99904.29;;;-0.75;77.64
35307;BME280;21420;52.196;21.416;2023-11-21T08:37:19;99903.42;;;-0.71;77.77
35307;BME280;21420;52.196;21.416;2023-11-21T08:39:47;99911.65;;;-0.66;77.73
35307;BME280;21420;52.196;21.416;2023-11-21T08:42:15;99915.50;;;-0.61;77.78
35307;BME280;21420;52.196;21.416;2023-11-21T08:44:42;99919.48;;;-0.59;77.75
35307;BME280;21420;52.196;21.416;2023-11-21T08:47:08;99917.84;;;-0.57;77.69
35307;BME280;21420;52.196;21.416;2023-11-21T08:49:35;99915.90;;;-0.55;77.76
35307;BME280;21420;52.196;21.416;2023-11-21T08:52:02;99920.53;;;-0.56;77.78
35307;BME280;21420;52.196;21.416;2023-11-21T08:54:29;99925.15;;;-0.53;77.66
35307;BME280;21420;52.196;21.416;2023-11-21T08:56:56;99929.82;;;-0.50;77.76
35307;BME280;21420;52.196;21.416;2023-11-21T08:59:25;99932.23;;;-0.46;77.78
35307;BME280;21420;52.196;21.416;2023-11-21T09:01:52;99932.87;;;-0.40;77.83
35307;BME280;21420;52.196;21.416;2023-11-21T09:04:19;99933.29;;;-0.36;77.71
35307;BME280;21420;52.196;21.416;2023-11-21T09:06:45;99931.83;;;-0.31;77.60
35307;BME280;21420;52.196;21.416;2023-11-21T09:09:12;99932.66;;;-0.25;77.75
35307;BME280;21420;52.196;21.416;2023-11-21T09:11:39;99934.09;;;-0.19;77.78
35307;BME280;21420;52.196;21.416;2023-11-21T09:14:06;99936.75;;;-0.12;77.84
35307;BME280;21420;52.196;21.416;2023-11-21T09:16:32;99939.90;;;-0.06;77.90
35307;BME280;21420;52.196;21.416;2023-11-21T09:19:00;99938.60;;;-0.01;77.75
35307;BME280;21420;52.196;21.416;2023-11-21T09:21:28;99938.31;;;0.03;77.78
35307;BME280;21420;52.196;21.416;2023-11-21T09:23:55;99938.69;;;0.03;77.65
35307;BME280;21420;52.196;21.416;2023-11-21T09:26:21;99942.77;;;0.03;77.70
35307;BME280;21420;52.196;21.416;2023-11-21T09:28:48;99943.25;;;0.04;77.64
35307;BME280;21420;52.196;21.416;2023-11-21T09:31:15;99947.98;;;0.06;77.70
35307;BME280;21420;52.196;21.416;2023-11-21T09:33:49;99950.14;;;0.06;77.65
35307;BME280;21420;52.196;21.416;2023-11-21T09:36:15;99949.11;;;0.08;77.67
35307;BME280;21420;52.196;21.416;2023-11-21T09:38:42;99951.96;;;0.10;77.68
35307;BME280;21420;52.196;21.416;2023-11-21T09:42:03;99950.21;;;0.12;77.67
35307;BME280;21420;52.196;21.416;2023-11-21T09:44:04;99946.33;;;0.15;77.67
35307;BME280;21420;52.196;21.416;2023-11-21T09:46:34;99942.98;;;0.18;77.78
35307;BME280;21420;52.196;21.416;2023-11-21T09:49:02;99942.64;;;0.21;77.70
35307;BME280;21420;52.196;21.416;2023-11-21T09:51:32;99939.88;;;0.23;77.69
35307;BME280;21420;52.196;21.416;2023-11-21T09:54:04;99943.38;;;0.24;77.65
35307;BME280;21420;52.196;21.416;2023-11-21T09:56:40;99940.99;;;0.25;77.67
35307;BME280;21420;52.196;21.416;2023-11-21T09:59:07;99944.50;;;0.26;77.66
35307;BME280;21420;52.196;21.416;2023-11-21T10:01:36;99945.81;;;0.31;77.66
35307;BME280;21420;52.196;21.416;2023-11-21T10:04:06;99947.63;;;0.33;77.65
35307;BME280;21420;52.196;21.416;2023-11-21T10:06:39;99947.84;;;0.36;77.63
35307;BME280;21420;52.196;21.416;2023-11-21T10:09:11;99953.11;;;0.46;77.68
35307;BME280;21420;52.196;21.416;2023-11-21T10:11:42;99957.60;;;0.51;77.73
35307;BME280;21420;52.196;21.416;2023-11-21T10:14:11;99956.87;;;0.56;77.71
35307;BME280;21420;52.196;21.416;2023-11-21T10:16:40;99958.67;;;0.61;77.69
35307;BME280;21420;52.196;21.416;2023-11-21T10:19:09;99963.67;;;0.62;77.70
35307;BME280;21420;52.196;21.416;2023-11-21T10:21:38;99967.17;;;0.64;77.61
35307;BME280;21420;52.196;21.416;2023-11-21T10:24:06;99965.80;;;0.67;77.62
35307;BME280;21420;52.196;21.416;2023-11-21T10:26:33;99963.84;;;0.61;77.44
35307;BME280;21420;52.196;21.416;2023-11-21T10:29:16;99968.88;;;0.59;77.44
35307;BME280;21420;52.196;21.416;2023-11-21T10:31:43;99966.14;;;0.55;77.37
35307;BME280;21420;52.196;21.416;2023-11-21T10:34:15;99966.19;;;0.56;77.44
35307;BME280;21420;52.196;21.416;2023-11-21T10:36:42;99967.14;;;0.60;77.48
35307;BME280;21420;52.196;21.416;2023-11-21T10:39:19;99966.00;;;0.61;77.50
35307;BME280;21420;52.196;21.416;2023-11-21T10:41:47;99962.30;;;0.59;77.44
35307;BME280;21420;52.196;21.416;2023-11-21T10:44:16;99965.16;;;0.57;77.47
35307;BME280;21420;52.196;21.416;2023-11-21T10:46:51;99967.05;;;0.57;77.43
35307;BME280;21420;52.196;21.416;2023-11-21T10:49:21;99969.79;;;0.60;77.44
35307;BME280;21420;52.196;21.416;2023-11-21T10:51:52;99968.30;;;0.55;77.40
35307;BME280;21420;52.196;21.416;2023-11-21T10:54:20;99966.56;;;0.48;77.33
35307;BME280;21420;52.196;21.416;2023-11-21T10:56:50;99971.24;;;0.40;77.36
35307;BME280;21420;52.196;21.416;2023-11-21T10:59:18;99972.81;;;0.37;77.37
35307;BME280;21420;52.196;21.416;2023-11-21T11:01:47;99982.80;;;0.36;77.25
35307;BME280;21420;52.196;21.416;2023-11-21T11:04:19;99979.77;;;0.38;77.35
35307;BME280;21420;52.196;21.416;2023-11-21T11:06:54;99978.30;;;0.41;77.48
35307;BME280;21420;52.196;21.416;2023-11-21T11:09:23;99980.02;;;0.44;77.39
35307;BME280;21420;52.196;21.416;2023-11-21T11:11:51;99978.11;;;0.36;77.35
35307;BME280;21420;52.196;21.416;2023-11-21T11:14:19;99979.08;;;0.27;77.26
35307;BME280;21420;52.196;21.416;2023-11-21T11:16:47;99984.27;;;0.20;77.18
35307;BME280;21420;52.196;21.416;2023-11-21T11:19:16;99982.17;;;0.17;77.21
35307;BME280;21420;52.196;21.416;2023-11-21T11:27:01;99985.69;;;0.28;77.31
35307;BME280;21420;52.196;21.416;2023-11-21T11:29:49;99987.31;;;0.28;77.30
35307;BME280;21420;52.196;21.416;2023-11-21T11:35:00;99996.21;;;0.46;77.64
35307;BME280;21420;52.196;21.416;2023-11-21T11:37:28;99997.20;;;0.60;77.67
35307;BME280;21420;52.196;21.416;2023-11-21T11:39:56;100000.12;;;0.68;77.53
35307;BME280;21420;52.196;21.416;2023-11-21T11:42:23;99996.50;;;0.79;77.65
35307;BME280;21420;52.196;21.416;2023-11-21T11:44:51;99997.02;;;0.91;77.67
35307;BME280;21420;52.196;21.416;2023-11-21T11:47:22;99996.77;;;0.94;77.54
35307;BME280;21420;52.196;21.416;2023-11-21T11:52:45;99999.94;;;0.82;77.25
35307;BME280;21420;52.196;21.416;2023-11-21T11:55:17;99998.92;;;0.80;77.26
35307;BME280;21420;52.196;21.416;2023-11-21T11:57:46;99996.36;;;0.75;77.14
35307;BME280;21420;52.196;21.416;2023-11-21T12:00:18;100001.00;;;0.75;77.15
35307;BME280;21420;52.196;21.416;2023-11-21T12:02:53;100001.45;;;0.72;77.11
35307;BME280;21420;52.196;21.416;2023-11-21T12:05:21;100003.42;;;0.68;77.06
35307;BME280;21420;52.196;21.416;2023-11-21T12:07:53;100004.73;;;0.62;77.06
35307;BME280;21420;52.196;21.416;2023-11-21T12:10:23;100007.46;;;0.58;77.03
35307;BME280;21420;52.196;21.416;2023-11-21T12:12:56;100006.34;;;0.58;77.15
35307;BME280;21420;52.196;21.416;2023-11-21T12:15:24;100008.91;;;0.58;77.21
35307;BME280;21420;52.196;21.416;2023-11-21T12:17:52;100009.77;;;0.59;77.26
35307;BME280;21420;52.196;21.416;2023-11-21T12:20:21;100014.04;;;0.57;77.22
35307;BME280;21420;52.196;21.416;2023-11-21T12:22:54;100020.55;;;0.50;77.06
35307;BME280;21420;52.196;21.416;2023-11-21T12:25:23;100018.66;;;0.48;77.11
35307;BME280;21420;52.196;21.416;2023-11-21T12:27:51;100015.34;;;0.46;77.16
35307;BME280;21420;52.196;21.416;2023-11-21T12:30:27;100014.64;;;0.46;77.23
35307;BME280;21420;52.196;21.416;2023-11-21T12:33:05;100013.98;;;0.47;77.27
35307;BME280;21420;52.196;21.416;2023-11-21T12:35:36;100017.02;;;0.45;77.10
35307;BME280;21420;52.196;21.416;2023-11-21T12:38:03;100023.34;;;0.42;77.00
35307;BME280;21420;52.196;21.416;2023-11-21T12:40:31;100023.50;;;0.40;77.05
35307;BME280;21420;52.196;21.416;2023-11-21T12:43:01;100025.99;;;0.37;77.09
35307;BME280;21420;52.196;21.416;2023-11-21T12:45:30;100032.15;;;0.38;77.10
35307;BME280;21420;52.196;21.416;2023-11-21T12:48:05;100034.81;;;0.41;77.16
35307;BME280;21420;52.196;21.416;2023-11-21T12:50:38;100038.09;;;0.42;77.17
35307;BME280;21420;52.196;21.416;2023-11-21T12:53:11;100037.27;;;0.38;77.15
35307;BME280;21420;52.196;21.416;2023-11-21T12:55:43;100034.97;;;0.33;76.99
35307;BME280;21420;52.196;21.416;2023-11-21T12:58:17;100039.29;;;0.31;77.02
35307;BME280;21420;52.196;21.416;2023-11-21T13:00:47;100043.02;;;0.27;77.07
35307;BME280;21420;52.196;21.416;2023-11-21T13:03:15;100045.84;;;0.23;77.12
35307;BME280;21420;52.196;21.416;2023-11-21T13:05:47;100040.81;;;0.22;77.14
35307;BME280;21420;52.196;21.416;2023-11-21T13:08:20;100045.02;;;0.18;77.06
35307;BME280;21420;52.196;21.416;2023-11-21T13:10:54;100047.68;;;0.13;76.95